Time;durP1;ratioP1;P1;durP2;ratioP2;P2;SDS_P1;SDS_P2;PMS_P1;PMS_P2;Temp;Humidity;BMP_temperature;BMP_pressure;BME280_temperature;BME280_humidity;BME280_pressure;Samples;Min_cycle;Max_cycle;Signal;HPM_P1;HPM_P2
2022/04/07 00:01:44;;;;;;;1.63;1.52;;;9.10;99.90;;;;;;4931862;28;20439;-60
2022/04/07 00:04:12;;;;;;;1.40;1.30;;;9.00;99.90;;;;;;4929755;28;20045;-60
2022/04/07 00:06:39;;;;;;;2.47;1.60;;;9.00;99.90;;;;;;4928678;28;20638;-60
2022/04/07 00:09:06;;;;;;;1.77;1.50;;;9.00;99.90;;;;;;4929691;28;20212;-60
2022/04/07 00:11:33;;;;;;;2.47;1.80;;;8.90;99.90;;;;;;4934355;28;20067;-60
2022/04/07 00:14:00;;;;;;;1.48;1.38;;;8.90;99.90;;;;;;4930246;28;20043;-60
2022/04/07 00:16:28;;;;;;;2.85;1.38;;;9.00;99.90;;;;;;4931342;28;20148;-60
2022/04/07 00:18:55;;;;;;;1.85;1.63;;;9.00;99.90;;;;;;4933100;28;20062;-59
2022/04/07 00:21:24;;;;;;;2.67;1.77;;;9.00;99.90;;;;;;4932248;28;20034;-60
2022/04/07 00:23:55;;;;;;;1.95;1.60;;;9.00;99.90;;;;;;4933004;28;20338;-59
2022/04/07 00:26:22;;;;;;;4.22;2.08;;;9.00;99.90;;;;;;4928695;28;20042;-60
2022/04/07 00:28:51;;;;;;;2.58;1.85;;;9.10;99.90;;;;;;4934701;28;20050;-60
2022/04/07 00:31:18;;;;;;;4.75;2.08;;;9.10;99.90;;;;;;4941754;28;20907;-60
2022/04/07 00:33:45;;;;;;;2.30;1.77;;;9.10;99.90;;;;;;4949739;28;20050;-60
2022/04/07 00:36:12;;;;;;;;;;;9.10;99.90;;;;;;4932023;28;20276;-60
2022/04/07 00:38:38;;;;;;;1.60;1.50;;;9.10;99.90;;;;;;4929273;28;20509;-60
2022/04/07 00:41:05;;;;;;;;;;;9.10;99.90;;;;;;4927669;28;20393;-59
2022/04/07 00:43:34;;;;;;;3.53;2.92;;;9.10;99.90;;;;;;4929953;28;19922;-59
2022/04/07 00:46:03;;;;;;;1.60;1.38;;;9.00;99.90;;;;;;4930692;28;20610;-59
2022/04/07 00:48:35;;;;;;;4.30;2.13;;;9.00;99.90;;;;;;4925200;28;20126;-59
2022/04/07 00:51:03;;;;;;;1.58;1.38;;;9.00;99.90;;;;;;4926085;28;20146;-59
2022/04/07 00:53:30;;;;;;;1.30;1.20;;;9.00;99.90;;;;;;4929620;28;20520;-59
2022/04/07 00:56:01;;;;;;;3.90;1.75;;;8.90;99.90;;;;;;4928111;28;20040;-60
2022/04/07 00:58:33;;;;;;;1.63;1.52;;;8.90;99.90;;;;;;4929369;28;20555;-59
2022/04/07 01:01:00;;;;;;;4.03;1.70;;;8.90;99.90;;;;;;4927415;28;20124;-59
2022/04/07 01:03:27;;;;;;;2.42;1.48;;;8.90;99.90;;;;;;4926397;28;20046;-59
2022/04/07 01:05:54;;;;;;;1.33;1.23;;;8.80;99.90;;;;;;4929716;28;20189;-59
2022/04/07 01:08:22;;;;;;;1.13;1.02;;;8.80;99.90;;;;;;4926680;28;20039;-59
2022/04/07 01:10:49;;;;;;;1.40;1.17;;;8.80;99.90;;;;;;4931176;28;20145;-59
2022/04/07 01:13:16;;;;;;;0.90;0.90;;;8.80;99.90;;;;;;4908957;28;20230;-59
2022/04/07 01:15:44;;;;;;;1.30;1.10;;;8.80;99.90;;;;;;4927458;28;20790;-61
2022/04/07 01:18:11;;;;;;;1.52;1.02;;;8.80;99.90;;;;;;4930052;28;20046;-60
2022/04/07 01:20:38;;;;;;;1.58;1.48;;;8.80;99.90;;;;;;4926536;28;20053;-60
2022/04/07 01:23:07;;;;;;;1.45;1.35;;;8.70;99.90;;;;;;4928516;28;20046;-59
2022/04/07 01:25:36;;;;;;;1.35;1.25;;;8.70;99.90;;;;;;4928243;28;20696;-59
2022/04/07 01:28:03;;;;;;;2.60;1.58;;;8.70;99.90;;;;;;4928490;28;20112;-60
2022/04/07 01:30:30;;;;;;;4.30;1.30;;;8.70;99.90;;;;;;4928361;28;20149;-59
2022/04/07 01:33:00;;;;;;;4.05;1.48;;;8.60;99.90;;;;;;4929491;28;20115;-60
2022/04/07 01:35:28;;;;;;;2.75;2.00;;;8.60;99.90;;;;;;4927579;28;20056;-60
2022/04/07 01:37:57;;;;;;;2.22;1.58;;;8.60;99.90;;;;;;4926525;28;20034;-60
2022/04/07 01:40:29;;;;;;;1.70;1.60;;;8.50;99.90;;;;;;4927147;28;20100;-59
2022/04/07 01:42:57;;;;;;;1.67;1.58;;;8.40;99.90;;;;;;4925523;28;20049;-59
2022/04/07 01:45:26;;;;;;;4.03;1.60;;;8.40;99.90;;;;;;4933023;28;20053;-59
2022/04/07 01:47:54;;;;;;;3.63;1.88;;;8.40;99.90;;;;;;4930191;28;20278;-59
2022/04/07 01:50:24;;;;;;;2.00;1.80;;;8.30;99.90;;;;;;4932168;28;20734;-60
2022/04/07 01:52:52;;;;;;;4.70;1.80;;;8.30;99.90;;;;;;4927561;28;20288;-59
2022/04/07 01:55:20;;;;;;;4.50;1.95;;;8.30;99.90;;;;;;4931823;28;20397;-60
2022/04/07 01:57:48;;;;;;;4.32;2.45;;;8.30;99.90;;;;;;4924251;28;20046;-60
2022/04/07 02:00:15;;;;;;;2.75;1.90;;;8.30;99.90;;;;;;4931475;28;20394;-60
2022/04/07 02:02:44;;;;;;;1.75;1.65;;;8.20;99.90;;;;;;4933000;28;20382;-60
2022/04/07 02:05:12;;;;;;;2.58;1.98;;;8.20;99.90;;;;;;4930602;28;20046;-59
2022/04/07 02:07:41;;;;;;;2.47;1.33;;;8.20;99.90;;;;;;4932225;28;20050;-59
2022/04/07 02:10:10;;;;;;;3.88;1.48;;;8.20;99.90;;;;;;4926918;28;20053;-60
2022/04/07 02:12:41;;;;;;;3.40;1.70;;;8.20;99.90;;;;;;4930705;28;20238;-59
2022/04/07 02:15:12;;;;;;;2.58;1.70;;;8.20;99.90;;;;;;4930583;28;20030;-59
2022/04/07 02:17:39;;;;;;;2.40;1.70;;;8.20;99.90;;;;;;4923040;28;20540;-60
2022/04/07 02:20:08;;;;;;;2.25;1.50;;;8.20;99.90;;;;;;4927633;28;20050;-60
2022/04/07 02:22:36;;;;;;;2.30;1.30;;;8.20;99.90;;;;;;4927318;28;20046;-60
2022/04/07 02:25:04;;;;;;;2.63;2.17;;;8.10;99.90;;;;;;4928677;28;20544;-60
2022/04/07 02:27:39;;;;;;;1.65;1.55;;;8.10;99.90;;;;;;4926257;28;20357;-60
2022/04/07 02:30:14;;;;;;;2.33;1.80;;;8.10;99.90;;;;;;4927492;28;20595;-60
2022/04/07 02:32:42;;;;;;;1.60;1.50;;;8.00;99.90;;;;;;4927412;28;20132;-60
2022/04/07 02:35:11;;;;;;;1.85;1.58;;;8.00;99.90;;;;;;4930348;28;20046;-60
2022/04/07 02:37:38;;;;;;;2.35;1.67;;;7.90;99.90;;;;;;4926755;28;20145;-60
2022/04/07 02:40:06;;;;;;;3.22;1.60;;;7.90;99.90;;;;;;4927043;28;20042;-60
2022/04/07 02:42:33;;;;;;;2.53;1.52;;;7.90;99.90;;;;;;4929762;28;20224;-62
2022/04/07 02:45:00;;;;;;;1.33;1.23;;;7.90;99.90;;;;;;4927546;28;20038;-61
2022/04/07 02:47:35;;;;;;;3.47;1.30;;;7.80;99.90;;;;;;4927351;28;20038;-60
2022/04/07 02:50:03;;;;;;;1.50;1.40;;;7.80;99.90;;;;;;4926259;28;20236;-60
2022/04/07 02:52:30;;;;;;;1.95;1.50;;;7.70;99.90;;;;;;4930000;28;20239;-59
2022/04/07 02:54:57;;;;;;;1.45;1.10;;;7.70;99.90;;;;;;4923758;28;20046;-60
2022/04/07 02:57:25;;;;;;;;;;;7.70;99.90;;;;;;4928065;28;20145;-60
2022/04/07 02:59:52;;;;;;;1.27;1.15;;;7.70;99.90;;;;;;4930332;28;19922;-60
2022/04/07 03:02:19;;;;;;;1.20;1.10;;;7.60;99.90;;;;;;4924915;28;20365;-60
2022/04/07 03:04:47;;;;;;;1.38;0.98;;;7.60;99.90;;;;;;4914043;28;20046;-60
2022/04/07 03:07:16;;;;;;;0.98;0.90;;;7.60;99.90;;;;;;4918202;28;20051;-60
2022/04/07 03:09:43;;;;;;;1.13;0.70;;;7.60;99.90;;;;;;4908999;28;20062;-59
2022/04/07 03:12:13;;;;;;;1.50;0.77;;;7.70;99.90;;;;;;4914733;28;20066;-60
2022/04/07 03:14:41;;;;;;;1.20;0.70;;;7.70;99.90;;;;;;4916552;28;20392;-60
2022/04/07 03:17:08;;;;;;;3.03;0.85;;;7.70;99.90;;;;;;4932676;28;20038;-60
2022/04/07 03:19:35;;;;;;;1.25;0.65;;;7.70;99.90;;;;;;4933334;28;20043;-60
2022/04/07 03:22:02;;;;;;;0.52;0.52;;;7.70;99.90;;;;;;4934119;28;20544;-59
2022/04/07 03:24:29;;;;;;;0.63;0.63;;;7.70;99.90;;;;;;4933679;28;20251;-59
2022/04/07 03:27:08;;;;;;;1.42;0.60;;;7.80;99.90;;;;;;4932673;28;20051;-60
2022/04/07 03:29:35;;;;;;;0.88;0.70;;;7.80;99.90;;;;;;4935437;28;20544;-60
2022/04/07 03:32:04;;;;;;;1.58;1.23;;;7.80;99.90;;;;;;4928798;28;20102;-60
2022/04/07 03:34:33;;;;;;;1.75;0.60;;;7.90;99.90;;;;;;4931528;28;20046;-59
2022/04/07 03:37:01;;;;;;;0.75;0.45;;;7.80;99.90;;;;;;4931036;28;20411;-59
2022/04/07 03:39:29;;;;;;;3.42;0.77;;;7.80;99.90;;;;;;4934365;28;20034;-60
2022/04/07 03:41:55;;;;;;;;;;;7.90;99.90;;;;;;4935407;28;20936;-59
2022/04/07 03:44:22;;;;;;;1.55;0.98;;;7.90;99.90;;;;;;4935846;28;20044;-59
2022/04/07 03:46:49;;;;;;;2.15;0.70;;;7.90;99.90;;;;;;4934883;28;20038;-60
2022/04/07 03:49:16;;;;;;;3.15;0.82;;;7.80;99.90;;;;;;4928925;28;20045;-59
2022/04/07 03:51:43;;;;;;;;;;;7.70;99.90;;;;;;4934814;28;20047;-59
2022/04/07 03:54:11;;;;;;;1.80;0.50;;;7.70;99.90;;;;;;4934115;28;20001;-60
2022/04/07 03:56:38;;;;;;;1.65;0.55;;;7.70;99.90;;;;;;4932145;28;20824;-59
2022/04/07 03:59:05;;;;;;;0.73;0.50;;;7.70;99.90;;;;;;4933498;28;20050;-60
2022/04/07 04:01:32;;;;;;;0.60;0.60;;;7.70;99.90;;;;;;4931274;28;20038;-59
2022/04/07 04:04:01;;;;;;;1.33;0.90;;;7.60;99.90;;;;;;4932142;28;20105;-60
2022/04/07 04:06:28;;;;;;;3.17;0.80;;;7.60;99.90;;;;;;4933699;28;20342;-59
2022/04/07 04:08:55;;;;;;;1.65;1.02;;;7.60;99.90;;;;;;4933025;28;20042;-59
2022/04/07 04:11:22;;;;;;;0.50;0.50;;;7.60;99.90;;;;;;4933318;28;20575;-59
2022/04/07 04:13:49;;;;;;;0.95;0.60;;;7.60;99.90;;;;;;4930298;28;20066;-59
2022/04/07 04:16:17;;;;;;;;;;;7.50;99.90;;;;;;4929729;28;20112;-59
2022/04/07 04:18:45;;;;;;;0.73;0.50;;;7.50;99.90;;;;;;4928047;28;20587;-61
2022/04/07 04:21:12;;;;;;;8.18;0.60;;;7.50;99.90;;;;;;4928659;28;20141;-59
2022/04/07 04:23:40;;;;;;;0.40;0.40;;;7.40;99.90;;;;;;4932158;28;20113;-59
2022/04/07 04:26:08;;;;;;;0.40;0.40;;;7.40;99.90;;;;;;4934061;28;20418;-61
2022/04/07 04:28:34;;;;;;;1.52;0.90;;;7.30;99.90;;;;;;4932417;28;20181;-60
2022/04/07 04:31:02;;;;;;;0.55;0.55;;;7.30;99.90;;;;;;4932222;28;20643;-60
2022/04/07 04:33:29;;;;;;;0.55;0.55;;;7.30;99.90;;;;;;4931833;28;20354;-61
2022/04/07 04:35:59;;;;;;;0.65;0.65;;;7.20;99.90;;;;;;4930869;28;20578;-60
2022/04/07 04:38:27;;;;;;;0.65;0.65;;;7.20;99.90;;;;;;4928448;28;20444;-60
2022/04/07 04:40:54;;;;;;;0.60;0.60;;;7.10;99.90;;;;;;4927358;28;20035;-60
2022/04/07 04:43:21;;;;;;;;;;;7.10;99.90;;;;;;4916622;28;20567;-61
2022/04/07 04:45:48;;;;;;;2.20;0.60;;;7.10;99.90;;;;;;4932075;28;20040;-61
2022/04/07 04:48:15;;;;;;;0.68;0.68;;;7.10;99.90;;;;;;4930737;28;20144;-60
2022/04/07 04:50:42;;;;;;;2.60;0.60;;;7.10;99.90;;;;;;4932823;28;20046;-61
2022/04/07 04:53:10;;;;;;;0.60;0.60;;;7.20;99.90;;;;;;4928749;28;20047;-61
2022/04/07 04:55:37;;;;;;;2.78;0.70;;;7.30;99.90;;;;;;4933591;28;20039;-60
2022/04/07 04:58:04;;;;;;;0.95;0.50;;;7.30;99.90;;;;;;4927734;28;20125;-59
2022/04/07 05:00:31;;;;;;;3.08;0.60;;;7.40;99.90;;;;;;4931116;28;20043;-63
2022/04/07 05:02:58;;;;;;;0.88;0.88;;;7.40;99.90;;;;;;4931787;28;20564;-63
2022/04/07 05:05:25;;;;;;;4.53;0.65;;;7.50;99.90;;;;;;4934552;28;20287;-62
2022/04/07 05:07:52;;;;;;;0.57;0.55;;;7.50;99.90;;;;;;4931849;28;20192;-63
2022/04/07 05:10:20;;;;;;;0.40;0.40;;;7.60;99.90;;;;;;4928641;28;20062;-62
2022/04/07 05:12:47;;;;;;;0.75;0.57;;;7.60;99.90;;;;;;4929303;28;20365;-63
2022/04/07 05:15:14;;;;;;;0.73;0.50;;;7.70;99.90;;;;;;4929916;28;20049;-63
2022/04/07 05:17:41;;;;;;;0.63;0.60;;;7.70;99.90;;;;;;4927367;28;20377;-63
2022/04/07 05:20:09;;;;;;;0.40;0.40;;;7.70;99.90;;;;;;4928461;28;20568;-63
2022/04/07 05:22:36;;;;;;;0.73;0.55;;;7.70;99.90;;;;;;4911940;28;20074;-63
2022/04/07 05:25:04;;;;;;;1.30;0.65;;;7.70;99.90;;;;;;4933030;28;20141;-62
2022/04/07 05:27:35;;;;;;;1.63;0.50;;;7.70;99.90;;;;;;4947568;28;20065;-62
2022/04/07 05:30:15;;;;;;;3.78;0.60;;;7.70;99.90;;;;;;4952563;28;20610;-62
2022/04/07 05:32:44;;;;;;;0.65;0.50;;;7.80;99.90;;;;;;4948755;28;20206;-62
2022/04/07 05:35:12;;;;;;;0.73;0.30;;;7.90;99.90;;;;;;4944730;28;20062;-61
2022/04/07 05:37:39;;;;;;;0.88;0.50;;;7.90;99.90;;;;;;4926597;28;20561;-62
2022/04/07 05:40:10;;;;;;;0.60;0.60;;;7.90;99.90;;;;;;4927325;28;20030;-61
2022/04/07 05:42:37;;;;;;;1.95;0.50;;;8.00;99.90;;;;;;4929353;28;20143;-62
2022/04/07 05:45:05;;;;;;;0.60;0.60;;;7.90;99.90;;;;;;4929789;28;20046;-62
2022/04/07 05:47:39;;;;;;;0.50;0.50;;;8.00;99.90;;;;;;4929344;28;20049;-62
2022/04/07 05:50:06;;;;;;;0.82;0.40;;;8.00;99.90;;;;;;4927910;28;20043;-64
2022/04/07 05:52:33;;;;;;;0.85;0.50;;;8.00;99.90;;;;;;4929802;28;20042;-64
2022/04/07 05:55:01;;;;;;;2.10;0.60;;;8.10;99.90;;;;;;4928111;28;20116;-65
2022/04/07 05:57:31;;;;;;;0.40;0.40;;;8.10;99.90;;;;;;4914572;28;20058;-64
2022/04/07 06:00:12;;;;;;;1.20;0.55;;;8.10;99.90;;;;;;4930609;28;20039;-64
2022/04/07 06:02:41;;;;;;;0.70;0.50;;;8.10;99.90;;;;;;4926154;28;20153;-65
2022/04/07 06:05:09;;;;;;;0.90;0.55;;;8.20;99.90;;;;;;4934219;28;20097;-65
2022/04/07 06:07:37;;;;;;;0.60;0.57;;;8.30;99.90;;;;;;4926585;28;20038;-65
2022/04/07 06:10:05;;;;;;;2.30;0.73;;;8.40;99.90;;;;;;4930620;28;20767;-64
2022/04/07 06:12:32;;;;;;;3.70;0.80;;;8.50;99.90;;;;;;4927155;28;20199;-65
2022/04/07 06:14:59;;;;;;;4.88;0.60;;;8.60;99.90;;;;;;4928831;28;20102;-64
2022/04/07 06:17:33;;;;;;;1.60;0.20;;;8.60;99.90;;;;;;4905222;28;20050;-65
2022/04/07 06:20:01;;;;;;;0.75;0.50;;;8.80;99.90;;;;;;4941085;28;20042;-65
2022/04/07 06:22:28;;;;;;;0.57;0.50;;;8.90;99.90;;;;;;4926276;28;20137;-66
2022/04/07 06:24:56;;;;;;;0.77;0.55;;;9.00;99.90;;;;;;4905383;28;20035;-65
2022/04/07 06:27:23;;;;;;;0.85;0.50;;;9.20;99.90;;;;;;4908450;28;20395;-65
2022/04/07 06:29:54;;;;;;;1.58;0.68;;;9.20;99.90;;;;;;4937754;28;20221;-65
2022/04/07 06:32:23;;;;;;;2.10;0.40;;;9.30;99.90;;;;;;4910636;28;20043;-64
2022/04/07 06:34:51;;;;;;;1.02;0.60;;;9.40;99.90;;;;;;4912582;28;20070;-65
2022/04/07 06:37:19;;;;;;;0.73;0.38;;;9.40;99.90;;;;;;4923298;28;20647;-64
2022/04/07 06:39:46;;;;;;;0.65;0.40;;;9.50;99.90;;;;;;4929942;28;20073;-64
2022/04/07 06:42:13;;;;;;;0.63;0.40;;;9.60;99.90;;;;;;4923136;28;20367;-65
2022/04/07 06:44:40;;;;;;;1.95;0.50;;;9.60;99.90;;;;;;4931568;28;20042;-65
2022/04/07 06:47:07;;;;;;;4.10;0.57;;;9.70;99.90;;;;;;4927478;28;20047;-66
2022/04/07 06:49:34;;;;;;;0.65;0.47;;;9.80;99.90;;;;;;4928776;28;20042;-65
2022/04/07 06:52:02;;;;;;;4.88;0.45;;;9.80;99.90;;;;;;4930801;28;20218;-65
2022/04/07 06:54:29;;;;;;;0.82;0.50;;;9.90;99.90;;;;;;4931530;28;20046;-66
2022/04/07 06:56:56;;;;;;;;;;;9.90;99.90;;;;;;4932162;28;20065;-65
2022/04/07 06:59:23;;;;;;;2.85;0.50;;;10.00;99.90;;;;;;4924200;28;19922;-65
2022/04/07 07:01:50;;;;;;;;;;;10.10;99.90;;;;;;4929679;28;20049;-65
2022/04/07 07:04:17;;;;;;;0.90;0.60;;;10.10;99.90;;;;;;4927245;28;20524;-66
2022/04/07 07:06:44;;;;;;;;;;;10.20;99.90;;;;;;4929643;28;20034;-67
2022/04/07 07:09:11;;;;;;;2.17;0.40;;;10.30;99.90;;;;;;4931579;28;20489;-66
2022/04/07 07:11:39;;;;;;;3.85;0.63;;;10.30;99.90;;;;;;4930366;28;20105;-65
2022/04/07 07:14:06;;;;;;;2.38;0.40;;;10.30;99.90;;;;;;4926933;28;20049;-65
2022/04/07 07:16:33;;;;;;;2.95;0.68;;;10.40;99.90;;;;;;4929431;28;20047;-66
2022/04/07 07:19:00;;;;;;;1.00;0.50;;;10.50;99.90;;;;;;4931766;28;20816;-65
2022/04/07 07:21:28;;;;;;;0.68;0.52;;;10.70;99.90;;;;;;4924809;28;20426;-66
2022/04/07 07:23:55;;;;;;;2.03;0.57;;;10.70;99.90;;;;;;4926945;28;20073;-67
2022/04/07 07:26:22;;;;;;;1.25;0.60;;;10.70;99.90;;;;;;4930531;28;20076;-66
2022/04/07 07:28:49;;;;;;;2.58;0.75;;;10.70;99.80;;;;;;4922774;28;20042;-66
2022/04/07 07:31:16;;;;;;;0.52;0.45;;;10.70;99.90;;;;;;4929468;28;20760;-66
2022/04/07 07:33:43;;;;;;;0.60;0.50;;;10.80;98.20;;;;;;4929347;28;20122;-66
2022/04/07 07:36:11;;;;;;;1.27;0.60;;;10.90;98.80;;;;;;4931063;28;20625;-65
2022/04/07 07:38:38;;;;;;;0.50;0.50;;;11.00;99.90;;;;;;4928081;28;20038;-65
2022/04/07 07:41:05;;;;;;;1.55;0.90;;;11.40;99.90;;;;;;4928690;28;20853;-66
2022/04/07 07:43:32;;;;;;;4.05;0.80;;;12.00;97.80;;;;;;4927757;28;20045;-66
2022/04/07 07:45:59;;;;;;;0.52;0.43;;;12.50;93.80;;;;;;4925611;28;20086;-65
2022/04/07 07:48:27;;;;;;;2.40;0.68;;;12.80;92.30;;;;;;4932266;28;20548;-65
2022/04/07 07:50:58;;;;;;;1.92;0.77;;;13.10;90.10;;;;;;4933171;28;20038;-65
2022/04/07 07:53:25;;;;;;;1.30;0.60;;;13.30;86.40;;;;;;4935460;28;20153;-66
2022/04/07 07:55:54;;;;;;;2.40;0.63;;;13.60;83.10;;;;;;4934378;28;20339;-66
2022/04/07 07:58:23;;;;;;;1.05;0.50;;;13.80;81.90;;;;;;4932795;28;20173;-65
2022/04/07 08:00:51;;;;;;;3.75;0.40;;;13.90;77.00;;;;;;4932477;28;20555;-66
2022/04/07 08:03:19;;;;;;;1.08;0.50;;;14.00;75.70;;;;;;4927767;28;20057;-66
2022/04/07 08:05:46;;;;;;;0.80;0.40;;;14.10;72.10;;;;;;4930877;28;20034;-64
2022/04/07 08:08:14;;;;;;;0.88;0.55;;;14.20;72.10;;;;;;4929548;28;20429;-65
2022/04/07 08:10:41;;;;;;;0.43;0.43;;;14.00;71.70;;;;;;4934603;28;20526;-62
2022/04/07 08:13:08;;;;;;;2.00;0.63;;;13.90;74.10;;;;;;4933954;28;20651;-62
2022/04/07 08:15:36;;;;;;;2.78;0.47;;;14.00;72.40;;;;;;4932664;28;20843;-63
2022/04/07 08:18:03;;;;;;;0.95;0.40;;;13.90;69.90;;;;;;4913690;28;20035;-64
2022/04/07 08:20:30;;;;;;;1.85;0.63;;;13.80;68.50;;;;;;4909655;28;20316;-65
2022/04/07 08:22:57;;;;;;;0.30;0.30;;;13.80;70.20;;;;;;4909329;28;20066;-63
2022/04/07 08:25:25;;;;;;;0.57;0.50;;;13.80;69.50;;;;;;4911920;28;21003;-63
2022/04/07 08:27:51;;;;;;;1.08;0.40;;;13.90;70.50;;;;;;4913575;28;20213;-63
2022/04/07 08:30:18;;;;;;;;;;;14.00;68.70;;;;;;4910779;28;20189;-64
2022/04/07 08:32:45;;;;;;;0.40;0.40;;;14.20;69.40;;;;;;4924489;28;19929;-64
2022/04/07 08:35:13;;;;;;;2.83;0.50;;;14.30;66.10;;;;;;4945432;28;20038;-62
2022/04/07 08:37:40;;;;;;;3.05;0.70;;;14.40;65.30;;;;;;4928882;28;20060;-60
2022/04/07 08:40:07;;;;;;;0.70;0.35;;;14.40;68.10;;;;;;4930405;28;20974;-62
2022/04/07 08:42:36;;;;;;;2.83;0.40;;;14.40;64.30;;;;;;4930952;28;20150;-65
2022/04/07 08:45:03;;;;;;;6.90;0.32;;;14.30;64.70;;;;;;4933670;28;20034;-64
2022/04/07 08:47:33;;;;;;;1.90;0.40;;;14.20;63.50;;;;;;4931436;28;20030;-65
2022/04/07 08:50:05;;;;;;;1.20;0.50;;;14.00;65.00;;;;;;4927682;28;20804;-64
2022/04/07 08:52:33;;;;;;;0.30;0.30;;;14.00;64.90;;;;;;4930003;28;20038;-64
2022/04/07 08:55:01;;;;;;;7.90;0.73;;;14.00;64.90;;;;;;4928229;28;20038;-64
2022/04/07 08:57:31;;;;;;;0.52;0.25;;;13.90;65.00;;;;;;4910238;28;20458;-64
2022/04/07 08:59:58;;;;;;;0.95;0.38;;;13.80;64.50;;;;;;4930104;28;20144;-64
2022/04/07 09:02:25;;;;;;;0.80;0.57;;;13.80;65.10;;;;;;4930387;28;20567;-64
2022/04/07 09:04:57;;;;;;;;;;;13.80;65.80;;;;;;4930242;28;20771;-63
2022/04/07 09:07:32;;;;;;;0.80;0.30;;;13.70;65.90;;;;;;4957869;28;20766;-62
2022/04/07 09:10:01;;;;;;;0.73;0.30;;;13.70;65.80;;;;;;4914325;28;20572;-63
2022/04/07 09:12:28;;;;;;;1.13;0.50;;;13.60;66.30;;;;;;4909935;28;20243;-62
2022/04/07 09:14:58;;;;;;;5.05;0.80;;;13.60;65.90;;;;;;4934167;28;20094;-64
2022/04/07 09:17:45;;;;;;;0.40;0.40;;;13.50;64.20;;;;;;4929708;28;20050;-63
2022/04/07 09:20:14;;;;;;;0.80;0.20;;;13.50;66.60;;;;;;4927775;28;20488;-62
2022/04/07 09:22:41;;;;;;;6.28;0.45;;;13.50;67.10;;;;;;4930377;28;20038;-63
2022/04/07 09:25:10;;;;;;;0.32;0.20;;;13.70;67.50;;;;;;4928886;28;20049;-63
2022/04/07 09:27:41;;;;;;;2.90;0.30;;;14.00;69.50;;;;;;4929520;28;20520;-60
2022/04/07 09:30:09;;;;;;;0.22;0.13;;;14.30;64.60;;;;;;4930684;28;20192;-61
2022/04/07 09:32:43;;;;;;;0.20;0.20;;;14.50;62.90;;;;;;4934432;28;20050;-61
2022/04/07 09:35:11;;;;;;;0.45;0.20;;;14.70;64.70;;;;;;4935094;28;20373;-64
2022/04/07 09:37:40;;;;;;;0.30;0.20;;;14.70;63.90;;;;;;4933727;28;20050;-60
2022/04/07 09:40:18;;;;;;;0.40;0.35;;;14.70;61.80;;;;;;4931426;28;20031;-63
2022/04/07 09:42:45;;;;;;;0.47;0.47;;;14.50;63.40;;;;;;4911180;28;20415;-64
2022/04/07 09:45:13;;;;;;;0.60;0.40;;;14.40;62.90;;;;;;4915869;28;20039;-63
2022/04/07 09:47:45;;;;;;;1.42;0.40;;;14.40;65.10;;;;;;4917793;28;20038;-63
2022/04/07 09:50:23;;;;;;;3.17;0.65;;;14.40;65.20;;;;;;4931149;28;20808;-65
2022/04/07 09:53:03;;;;;;;4.03;0.38;;;14.40;63.90;;;;;;4928469;28;20211;-65
2022/04/07 09:55:43;;;;;;;1.52;0.32;;;14.30;64.00;;;;;;4931515;28;20057;-65
2022/04/07 09:58:12;;;;;;;2.50;0.70;;;14.30;64.60;;;;;;4928164;28;20046;-64
2022/04/07 10:00:40;;;;;;;0.80;0.45;;;14.40;66.30;;;;;;4935547;28;20038;-65
2022/04/07 10:03:11;;;;;;;4.47;0.45;;;14.30;67.10;;;;;;4928371;28;20149;-66
2022/04/07 10:05:39;;;;;;;1.20;0.40;;;14.40;65.90;;;;;;4930159;28;20180;-65
2022/04/07 10:08:07;;;;;;;1.08;0.32;;;14.40;66.10;;;;;;4929514;28;20049;-65
2022/04/07 10:10:35;;;;;;;1.70;0.40;;;14.40;64.10;;;;;;4914849;28;20232;-65
2022/04/07 10:13:03;;;;;;;2.13;0.40;;;14.20;66.00;;;;;;4931190;28;20042;-65
2022/04/07 10:15:30;;;;;;;0.20;0.20;;;14.30;66.10;;;;;;4929563;28;20577;-65
2022/04/07 10:18:04;;;;;;;3.22;0.30;;;14.40;67.40;;;;;;4926682;28;20054;-65
2022/04/07 10:20:35;;;;;;;2.70;0.32;;;14.40;65.80;;;;;;4922872;28;20098;-65
2022/04/07 10:23:24;;;;;;;0.85;0.40;;;14.40;65.30;;;;;;4914541;28;20224;-65
2022/04/07 10:25:52;;;;;;;0.85;0.30;;;14.40;66.70;;;;;;4915195;28;20142;-65
2022/04/07 10:28:19;;;;;;;0.73;0.40;;;14.40;64.90;;;;;;4908536;28;20070;-65
2022/04/07 10:30:53;;;;;;;1.55;0.75;;;14.30;65.80;;;;;;4929014;28;20041;-66
2022/04/07 10:33:41;;;;;;;0.80;0.20;;;14.40;67.20;;;;;;4941745;28;20769;-65
2022/04/07 10:36:19;;;;;;;1.20;0.30;;;14.50;65.80;;;;;;4942633;28;20034;-66
2022/04/07 10:38:49;;;;;;;0.40;0.40;;;14.60;64.20;;;;;;4944208;28;20112;-65
2022/04/07 10:41:46;;;;;;;0.50;0.50;;;14.60;66.00;;;;;;4943123;28;20034;-65
2022/04/07 10:44:25;;;;;;;0.22;0.22;;;14.70;65.50;;;;;;4948833;28;20046;-65
2022/04/07 10:47:06;;;;;;;0.63;0.52;;;14.90;65.70;;;;;;4946471;28;20042;-66
2022/04/07 10:49:33;;;;;;;1.27;0.30;;;14.90;64.20;;;;;;4911028;28;20391;-65
2022/04/07 10:52:06;;;;;;;0.77;0.25;;;14.90;62.40;;;;;;4909222;28;20050;-65
2022/04/07 10:55:10;;;;;;;0.30;0.30;;;14.80;60.20;;;;;;4924062;28;20134;-65
2022/04/07 10:58:10;;;;;;;2.30;0.20;;;14.50;62.20;;;;;;4927615;28;20329;-65
2022/04/07 11:00:38;;;;;;;1.08;0.40;;;14.40;64.40;;;;;;4907711;28;20047;-66
2022/04/07 11:03:15;;;;;;;0.32;0.17;;;14.40;63.20;;;;;;4920661;28;20541;-66
2022/04/07 11:05:59;;;;;;;0.20;0.20;;;14.40;65.20;;;;;;4909893;28;20307;-66
2022/04/07 11:08:26;;;;;;;0.13;0.13;;;14.40;62.70;;;;;;4906508;28;20393;-65
2022/04/07 11:10:55;;;;;;;0.43;0.28;;;14.50;63.60;;;;;;4911844;28;20239;-65
2022/04/07 11:13:46;;;;;;;0.55;0.38;;;14.60;63.70;;;;;;4909526;28;20412;-65
2022/04/07 11:16:21;;;;;;;1.98;0.50;;;14.70;63.60;;;;;;4924491;28;20042;-65
2022/04/07 11:18:54;;;;;;;4.88;0.28;;;14.80;62.60;;;;;;4926173;28;20498;-65
2022/04/07 11:21:21;;;;;;;3.92;0.38;;;14.80;63.80;;;;;;4929473;28;20566;-65
2022/04/07 11:23:49;;;;;;;3.60;0.30;;;14.70;63.00;;;;;;4934659;28;20037;-65
2022/04/07 11:26:27;;;;;;;0.55;0.30;;;14.50;62.50;;;;;;4931024;28;20797;-65
2022/04/07 11:29:03;;;;;;;1.33;0.47;;;14.30;64.40;;;;;;4937092;28;20042;-66
2022/04/07 11:31:48;;;;;;;1.48;0.40;;;14.10;64.20;;;;;;4933144;28;20053;-65
2022/04/07 11:34:41;;;;;;;0.95;0.30;;;13.90;66.40;;;;;;4918406;28;20046;-67
2022/04/07 11:37:14;;;;;;;0.68;0.40;;;13.70;67.40;;;;;;4928382;28;20073;-65
2022/04/07 11:39:45;;;;;;;0.22;0.20;;;13.50;69.70;;;;;;4934655;28;20035;-64
2022/04/07 11:42:17;;;;;;;0.38;0.30;;;13.30;72.10;;;;;;4927616;28;20050;-65
2022/04/07 11:44:47;;;;;;;6.95;0.52;;;13.10;74.50;;;;;;4934417;28;20034;-65
2022/04/07 11:47:26;;;;;;;0.30;0.30;;;13.00;76.50;;;;;;4917317;28;20181;-57
2022/04/07 11:49:53;;;;;;;1.15;0.90;;;12.90;77.00;;;;;;4921664;28;20850;-58
2022/04/07 11:52:26;;;;;;;3.45;1.60;;;12.90;75.90;;;;;;4949304;28;20843;-56
2022/04/07 11:54:55;;;;;;;6.63;1.88;;;12.90;75.60;;;;;;4950960;28;20153;-58
2022/04/07 11:57:23;;;;;;;1.45;0.57;;;12.90;76.40;;;;;;4949405;28;20119;-61
2022/04/07 11:59:55;;;;;;;0.82;0.30;;;12.90;75.40;;;;;;4963514;28;20291;-63
2022/04/07 12:02:23;;;;;;;1.70;0.30;;;12.90;74.50;;;;;;4950389;28;20030;-63
2022/04/07 12:05:01;;;;;;;1.45;0.22;;;12.80;74.30;;;;;;4952299;28;20204;-63
2022/04/07 12:07:29;;;;;;;1.05;0.32;;;12.80;81.10;;;;;;4952820;28;20136;-62
2022/04/07 12:10:06;;;;;;;0.22;0.22;;;12.60;87.20;;;;;;4948949;28;20215;-59
2022/04/07 12:12:43;;;;;;;0.28;0.28;;;12.30;92.10;;;;;;4948450;28;20153;-59
2022/04/07 12:15:11;;;;;;;0.30;0.30;;;12.10;97.60;;;;;;4944559;28;20145;-61
2022/04/07 12:18:07;;;;;;;0.45;0.40;;;12.00;99.90;;;;;;4931962;28;20050;-57
2022/04/07 12:20:36;;;;;;;0.32;0.32;;;11.80;99.90;;;;;;4931215;28;20034;-59
2022/04/07 12:23:10;;;;;;;0.30;0.30;;;11.70;99.90;;;;;;4931990;28;20042;-58
2022/04/07 12:25:40;;;;;;;0.30;0.30;;;11.50;99.90;;;;;;4930699;28;20042;-56
2022/04/07 12:28:18;;;;;;;2.08;0.20;;;11.40;99.90;;;;;;4929292;28;20196;-57
2022/04/07 12:30:46;;;;;;;;;;;11.20;99.90;;;;;;4933917;28;20054;-57
2022/04/07 12:33:32;;;;;;;;;;;11.00;99.90;;;;;;4930678;28;19936;-56
2022/04/07 12:35:59;;;;;;;0.80;0.30;;;10.90;99.90;;;;;;4928896;28;19922;-57
2022/04/07 12:38:26;;;;;;;0.45;0.32;;;10.60;99.90;;;;;;4928022;28;20105;-57
2022/04/07 12:40:53;;;;;;;1.55;0.10;;;10.40;99.90;;;;;;4927632;28;20279;-56
2022/04/07 12:43:20;;;;;;;0.60;0.30;;;10.30;99.90;;;;;;4915814;28;20682;-57
2022/04/07 12:45:58;;;;;;;1.55;0.40;;;10.20;99.90;;;;;;4929745;28;20649;-57
2022/04/07 12:48:27;;;;;;;7.03;1.08;;;10.00;99.90;;;;;;4933596;28;20121;-58
2022/04/07 12:50:56;;;;;;;1.42;0.40;;;9.90;99.90;;;;;;4931757;28;20050;-56
2022/04/07 12:53:31;;;;;;;1.02;0.30;;;9.80;99.90;;;;;;4930742;28;20599;-58
2022/04/07 12:56:03;;;;;;;0.22;0.22;;;9.80;99.90;;;;;;4936394;28;20102;-57
2022/04/07 12:58:31;;;;;;;0.60;0.30;;;9.70;99.90;;;;;;4934182;28;20042;-58
2022/04/07 13:01:00;;;;;;;2.08;0.60;;;9.70;99.90;;;;;;4932442;28;20050;-57
2022/04/07 13:03:28;;;;;;;3.90;0.35;;;9.70;99.90;;;;;;4933515;28;20390;-56
2022/04/07 13:05:56;;;;;;;0.88;0.22;;;9.70;99.90;;;;;;4928157;28;20058;-57
2022/04/07 13:08:23;;;;;;;0.43;0.20;;;9.70;99.90;;;;;;4930985;28;20053;-58